sensor_id;sensor_type;location;lat;lon;timestamp;pressure;altitude;pressure_sealevel;temperature;humidity
8140;BME280;4111;50.972;7.072;2023-07-30T00:00:53;100526.53;;;20.01;100.00
8140;BME280;4111;50.972;7.072;2023-07-30T00:03:34;100525.41;;;20.03;100.00
8140;BME280;4111;50.972;7.072;2023-07-30T00:06:06;100519.41;;;19.78;100.00
8140;BME280;4111;50.972;7.072;2023-07-30T00:08:32;100531.16;;;19.70;100.00
8140;BME280;4111;50.972;7.072;2023-07-30T00:10:59;100535.09;;;19.55;100.00
8140;BME280;4111;50.972;7.072;2023-07-30T00:13:25;100534.63;;;19.39;100.00
8140;BME280;4111;50.972;7.072;2023-07-30T00:15:55;100545.19;;;19.23;100.00
8140;BME280;4111;50.972;7.072;2023-07-30T00:18:21;100536.97;;;19.09;100.00
8140;BME280;4111;50.972;7.072;2023-07-30T00:20:48;100537.38;;;19.02;100.00
8140;BME280;4111;50.972;7.072;2023-07-30T00:23:14;100539.44;;;19.47;100.00
8140;BME280;4111;50.972;7.072;2023-07-30T00:25:41;100530.06;;;19.93;100.00
8140;BME280;4111;50.972;7.072;2023-07-30T00:28:07;100533.16;;;20.32;100.00
8140;BME280;4111;50.972;7.072;2023-07-30T00:30:33;100537.38;;;20.29;99.61
8140;BME280;4111;50.972;7.072;2023-07-30T00:33:00;100541.47;;;20.00;98.98
8140;BME280;4111;50.972;7.072;2023-07-30T00:35:26;100534.03;;;19.65;99.52
8140;BME280;4111;50.972;7.072;2023-07-30T00:37:53;100542.91;;;19.39;100.00
8140;BME280;4111;50.972;7.072;2023-07-30T00:40:19;100541.75;;;19.17;100.00
8140;BME280;4111;50.972;7.072;2023-07-30T00:42:46;100546.47;;;18.89;100.00
8140;BME280;4111;50.972;7.072;2023-07-30T00:45:12;100530.44;;;18.77;100.00
8140;BME280;4111;50.972;7.072;2023-07-30T00:47:39;100540.22;;;18.56;100.00
8140;BME280;4111;50.972;7.072;2023-07-30T00:50:07;100544.41;;;18.39;100.00
8140;BME280;4111;50.972;7.072;2023-07-30T00:52:34;100537.47;;;18.28;100.00
8140;BME280;4111;50.972;7.072;2023-07-30T00:55:06;100537.66;;;18.18;100.00
8140;BME280;4111;50.972;7.072;2023-07-30T00:57:35;100536.75;;;18.22;100.00
8140;BME280;4111;50.972;7.072;2023-07-30T01:00:03;100539.31;;;18.19;100.00
8140;BME280;4111;50.972;7.072;2023-07-30T01:02:36;100536.47;;;18.38;100.00
8140;BME280;4111;50.972;7.072;2023-07-30T01:05:03;100545.22;;;18.68;100.00
8140;BME280;4111;50.972;7.072;2023-07-30T01:07:30;100546.25;;;18.72;100.00
8140;BME280;4111;50.972;7.072;2023-07-30T01:09:58;100550.44;;;18.69;100.00
8140;BME280;4111;50.972;7.072;2023-07-30T01:12:25;100547.25;;;18.62;100.00
8140;BME280;4111;50.972;7.072;2023-07-30T01:14:54;100551.72;;;18.44;100.00
8140;BME280;4111;50.972;7.072;2023-07-30T01:17:22;100551.53;;;18.27;100.00
8140;BME280;4111;50.972;7.072;2023-07-30T01:19:48;100547.94;;;18.26;100.00
8140;BME280;4111;50.972;7.072;2023-07-30T01:22:21;100554.16;;;18.18;100.00
8140;BME280;4111;50.972;7.072;2023-07-30T01:24:48;100563.53;;;18.17;100.00
8140;BME280;4111;50.972;7.072;2023-07-30T01:27:37;100562.91;;;18.20;100.00
8140;BME280;4111;50.972;7.072;2023-07-30T01:32:37;100566.34;;;18.12;100.00
8140;BME280;4111;50.972;7.072;2023-07-30T01:35:06;100562.50;;;18.13;100.00
8140;BME280;4111;50.972;7.072;2023-07-30T01:37:34;100563.31;;;18.13;100.00
8140;BME280;4111;50.972;7.072;2023-07-30T01:40:01;100564.91;;;18.14;100.00
8140;BME280;4111;50.972;7.072;2023-07-30T01:42:31;100566.34;;;18.12;100.00
8140;BME280;4111;50.972;7.072;2023-07-30T01:44:57;100569.38;;;18.10;100.00
8140;BME280;4111;50.972;7.072;2023-07-30T01:47:24;100574.59;;;18.12;100.00
8140;BME280;4111;50.972;7.072;2023-07-30T01:49:51;100583.63;;;18.12;100.00
8140;BME280;4111;50.972;7.072;2023-07-30T01:52:17;100573.56;;;18.08;100.00
8140;BME280;4111;50.972;7.072;2023-07-30T01:54:43;100571.41;;;18.04;100.00
8140;BME280;4111;50.972;7.072;2023-07-30T01:57:10;100570.59;;;18.04;100.00
8140;BME280;4111;50.972;7.072;2023-07-30T01:59:39;100571.22;;;18.01;100.00
8140;BME280;4111;50.972;7.072;2023-07-30T02:02:05;100570.66;;;17.99;100.00
8140;BME280;4111;50.972;7.072;2023-07-30T02:04:33;100572.63;;;17.98;100.00
8140;BME280;4111;50.972;7.072;2023-07-30T02:07:00;100576.09;;;18.04;100.00
8140;BME280;4111;50.972;7.072;2023-07-30T02:09:26;100574.78;;;18.01;100.00
8140;BME280;4111;50.972;7.072;2023-07-30T02:11:53;100570.59;;;18.04;100.00
8140;BME280;4111;50.972;7.072;2023-07-30T02:14:19;100561.25;;;18.05;100.00
8140;BME280;4111;50.972;7.072;2023-07-30T02:16:46;100560.84;;;18.12;100.00
8140;BME280;4111;50.972;7.072;2023-07-30T02:19:12;100554.75;;;18.15;100.00
8140;BME280;4111;50.972;7.072;2023-07-30T02:21:39;100548.75;;;18.13;100.00
8140;BME280;4111;50.972;7.072;2023-07-30T02:24:09;100556.09;;;18.17;100.00
8140;BME280;4111;50.972;7.072;2023-07-30T02:26:38;100558.09;;;18.12;100.00
8140;BME280;4111;50.972;7.072;2023-07-30T02:29:05;100553.13;;;18.14;100.00
8140;BME280;4111;50.972;7.072;2023-07-30T02:31:32;100540.38;;;18.04;100.00
8140;BME280;4111;50.972;7.072;2023-07-30T02:33:58;100543.13;;;18.04;100.00
8140;BME280;4111;50.972;7.072;2023-07-30T02:36:25;100550.25;;;18.05;100.00
8140;BME280;4111;50.972;7.072;2023-07-30T02:38:51;100549.66;;;18.08;100.00
8140;BME280;4111;50.972;7.072;2023-07-30T02:41:17;100563.31;;;18.13;100.00
8140;BME280;4111;50.972;7.072;2023-07-30T02:43:44;100567.59;;;18.19;100.00
8140;BME280;4111;50.972;7.072;2023-07-30T02:46:10;100568.78;;;18.13;100.00
8140;BME280;4111;50.972;7.072;2023-07-30T02:48:37;100571.25;;;18.15;100.00
8140;BME280;4111;50.972;7.072;2023-07-30T02:51:03;100562.50;;;18.13;100.00
8140;BME280;4111;50.972;7.072;2023-07-30T02:53:30;100558.63;;;18.14;100.00
8140;BME280;4111;50.972;7.072;2023-07-30T02:55:56;100570.94;;;18.16;100.00
8140;BME280;4111;50.972;7.072;2023-07-30T02:58:23;100563.59;;;18.12;100.00
8140;BME280;4111;50.972;7.072;2023-07-30T03:00:49;100563.69;;;18.07;100.00
8140;BME280;4111;50.972;7.072;2023-07-30T03:03:16;100564.69;;;18.11;100.00
8140;BME280;4111;50.972;7.072;2023-07-30T03:05:43;100580.59;;;18.14;100.00
8140;BME280;4111;50.972;7.072;2023-07-30T03:08:09;100580.00;;;18.17;100.00
8140;BME280;4111;50.972;7.072;2023-07-30T03:10:36;100582.53;;;18.13;100.00
8140;BME280;4111;50.972;7.072;2023-07-30T03:13:02;100582.25;;;18.15;100.00
8140;BME280;4111;50.972;7.072;2023-07-30T03:15:29;100586.00;;;18.19;100.00
8140;BME280;4111;50.972;7.072;2023-07-30T03:17:55;100588.75;;;18.19;100.00
8140;BME280;4111;50.972;7.072;2023-07-30T03:20:22;100597.53;;;18.21;100.00
8140;BME280;4111;50.972;7.072;2023-07-30T03:22:48;100598.09;;;18.18;100.00
8140;BME280;4111;50.972;7.072;2023-07-30T03:25:15;100594.34;;;18.14;100.00
8140;BME280;4111;50.972;7.072;2023-07-30T03:27:41;100599.72;;;18.05;100.00
8140;BME280;4111;50.972;7.072;2023-07-30T03:30:08;100604.47;;;17.99;100.00
8140;BME280;4111;50.972;7.072;2023-07-30T03:32:35;100602.81;;;17.98;100.00
8140;BME280;4111;50.972;7.072;2023-07-30T03:35:01;100608.09;;;17.95;100.00
8140;BME280;4111;50.972;7.072;2023-07-30T03:37:28;100604.66;;;17.89;100.00
8140;BME280;4111;50.972;7.072;2023-07-30T03:39:54;100603.50;;;17.90;100.00
8140;BME280;4111;50.972;7.072;2023-07-30T03:42:21;100613.47;;;17.86;100.00
8140;BME280;4111;50.972;7.072;2023-07-30T03:44:47;100610.44;;;17.88;100.00
8140;BME280;4111;50.972;7.072;2023-07-30T03:47:14;100600.75;;;17.90;100.00
8140;BME280;4111;50.972;7.072;2023-07-30T03:49:40;100604.94;;;17.88;100.00
8140;BME280;4111;50.972;7.072;2023-07-30T03:52:07;100606.88;;;17.87;100.00
8140;BME280;4111;50.972;7.072;2023-07-30T03:54:33;100616.78;;;17.83;100.00
8140;BME280;4111;50.972;7.072;2023-07-30T03:56:59;100614.03;;;17.83;100.00
8140;BME280;4111;50.972;7.072;2023-07-30T03:59:26;100607.72;;;17.82;100.00
8140;BME280;4111;50.972;7.072;2023-07-30T04:01:54;100622.59;;;17.81;100.00
8140;BME280;4111;50.972;7.072;2023-07-30T04:04:21;100613.47;;;17.86;100.00
8140;BME280;4111;50.972;7.072;2023-07-30T04:06:47;100622.22;;;17.88;100.00
8140;BME280;4111;50.972;7.072;2023-07-30T04:09:14;100626.63;;;17.89;100.00
8140;BME280;4111;50.972;7.072;2023-07-30T04:11:40;100640.34;;;17.89;100.00
8140;BME280;4111;50.972;7.072;2023-07-30T04:14:07;100634.84;;;17.89;100.00
8140;BME280;4111;50.972;7.072;2023-07-30T04:16:35;100632.19;;;17.84;100.00
8140;BME280;4111;50.972;7.072;2023-07-30T04:19:01;100636.47;;;17.90;100.00
8140;BME280;4111;50.972;7.072;2023-07-30T04:21:28;100623.28;;;18.25;100.00
8140;BME280;4111;50.972;7.072;2023-07-30T04:23:54;100615.88;;;18.39;100.00
8140;BME280;4111;50.972;7.072;2023-07-30T04:26:21;100625.75;;;19.01;100.00
8140;BME280;4111;50.972;7.072;2023-07-30T04:28:47;100635.50;;;19.21;100.00
8140;BME280;4111;50.972;7.072;2023-07-30T04:31:13;100633.25;;;19.37;100.00
8140;BME280;4111;50.972;7.072;2023-07-30T04:33:40;100620.53;;;19.13;100.00
8140;BME280;4111;50.972;7.072;2023-07-30T04:36:06;100622.47;;;18.85;100.00
8140;BME280;4111;50.972;7.072;2023-07-30T04:38:34;100633.13;;;18.59;100.00
8140;BME280;4111;50.972;7.072;2023-07-30T04:41:00;100638.69;;;18.40;100.00
8140;BME280;4111;50.972;7.072;2023-07-30T04:43:27;100628.84;;;18.20;100.00
8140;BME280;4111;50.972;7.072;2023-07-30T04:45:53;100630.44;;;18.07;100.00
8140;BME280;4111;50.972;7.072;2023-07-30T04:48:19;100629.41;;;18.03;100.00
8140;BME280;4111;50.972;7.072;2023-07-30T04:50:46;100626.34;;;18.04;100.00
8140;BME280;4111;50.972;7.072;2023-07-30T04:53:12;100635.72;;;18.03;100.00
8140;BME280;4111;50.972;7.072;2023-07-30T04:55:39;100631.56;;;18.06;100.00
8140;BME280;4111;50.972;7.072;2023-07-30T04:58:05;100636.41;;;18.28;100.00
8140;BME280;4111;50.972;7.072;2023-07-30T05:00:32;100639.72;;;18.58;100.00
8140;BME280;4111;50.972;7.072;2023-07-30T05:02:58;100637.50;;;18.74;100.00
8140;BME280;4111;50.972;7.072;2023-07-30T05:05:25;100627.69;;;18.87;100.00
8140;BME280;4111;50.972;7.072;2023-07-30T05:07:51;100632.25;;;19.05;100.00
8140;BME280;4111;50.972;7.072;2023-07-30T05:10:18;100632.47;;;18.95;99.71
8140;BME280;4111;50.972;7.072;2023-07-30T05:12:44;100626.72;;;18.77;100.00
8140;BME280;4111;50.972;7.072;2023-07-30T05:15:11;100635.88;;;18.59;100.00
8140;BME280;4111;50.972;7.072;2023-07-30T05:17:37;100635.41;;;18.38;99.48
8140;BME280;4111;50.972;7.072;2023-07-30T05:20:04;100628.78;;;18.25;98.95
8140;BME280;4111;50.972;7.072;2023-07-30T05:22:31;100632.69;;;18.05;96.35
8140;BME280;4111;50.972;7.072;2023-07-30T05:24:57;100628.59;;;18.02;95.64
8140;BME280;4111;50.972;7.072;2023-07-30T05:27:23;100633.66;;;17.95;94.82
8140;BME280;4111;50.972;7.072;2023-07-30T05:29:50;100640.78;;;17.96;95.62
8140;BME280;4111;50.972;7.072;2023-07-30T05:32:16;100643.16;;;17.84;95.93
8140;BME280;4111;50.972;7.072;2023-07-30T05:34:43;100635.56;;;17.76;97.09
8140;BME280;4111;50.972;7.072;2023-07-30T05:37:09;100632.88;;;17.71;95.74
8140;BME280;4111;50.972;7.072;2023-07-30T05:39:36;100634.59;;;17.67;96.59
8140;BME280;4111;50.972;7.072;2023-07-30T05:42:02;100634.69;;;17.99;96.87
8140;BME280;4111;50.972;7.072;2023-07-30T05:44:29;100629.69;;;18.34;96.85
8140;BME280;4111;50.972;7.072;2023-07-30T05:46:55;100637.47;;;18.46;95.52
8140;BME280;4111;50.972;7.072;2023-07-30T05:49:22;100636.78;;;18.54;94.09
8140;BME280;4111;50.972;7.072;2023-07-30T05:51:48;100652.81;;;18.66;92.76
8140;BME280;4111;50.972;7.072;2023-07-30T05:54:15;100641.25;;;18.64;91.68
8140;BME280;4111;50.972;7.072;2023-07-30T05:56:41;100645.19;;;18.44;92.16
8140;BME280;4111;50.972;7.072;2023-07-30T05:59:07;100645.78;;;18.27;91.75
8140;BME280;4111;50.972;7.072;2023-07-30T06:01:34;100648.91;;;18.20;92.29
8140;BME280;4111;50.972;7.072;2023-07-30T06:04:00;100648.25;;;18.10;91.69
8140;BME280;4111;50.972;7.072;2023-07-30T06:06:28;100648.72;;;17.98;92.47
8140;BME280;4111;50.972;7.072;2023-07-30T06:08:55;100639.75;;;17.92;94.06
8140;BME280;4111;50.972;7.072;2023-07-30T06:11:22;100650.50;;;17.89;93.20
8140;BME280;4111;50.972;7.072;2023-07-30T06:13:49;100650.22;;;17.90;92.15
8140;BME280;4111;50.972;7.072;2023-07-30T06:16:18;100653.84;;;18.37;92.11
8140;BME280;4111;50.972;7.072;2023-07-30T06:18:45;100643.63;;;18.71;90.57
8140;BME280;4111;50.972;7.072;2023-07-30T06:21:12;100655.88;;;18.78;89.77
8140;BME280;4111;50.972;7.072;2023-07-30T06:23:38;100648.66;;;18.82;88.40
8140;BME280;4111;50.972;7.072;2023-07-30T06:26:05;100647.97;;;18.91;88.60
8140;BME280;4111;50.972;7.072;2023-07-30T06:28:31;100655.91;;;19.06;88.36
8140;BME280;4111;50.972;7.072;2023-07-30T06:31:01;100655.19;;;19.14;86.73
8140;BME280;4111;50.972;7.072;2023-07-30T06:33:28;100657.34;;;19.17;86.90
8140;BME280;4111;50.972;7.072;2023-07-30T06:35:58;100665.50;;;19.09;87.11
8140;BME280;4111;50.972;7.072;2023-07-30T06:38:25;100660.00;;;19.09;87.88
8140;BME280;4111;50.972;7.072;2023-07-30T06:40:52;100658.16;;;19.04;86.84
8140;BME280;4111;50.972;7.072;2023-07-30T06:43:18;100664.66;;;18.80;87.83
8140;BME280;4111;50.972;7.072;2023-07-30T06:45:45;100677.63;;;18.61;89.55
8140;BME280;4111;50.972;7.072;2023-07-30T06:48:11;100678.72;;;18.46;91.21
8140;BME280;4111;50.972;7.072;2023-07-30T06:50:37;100696.19;;;18.36;91.53
8140;BME280;4111;50.972;7.072;2023-07-30T06:53:04;100692.66;;;18.50;91.77
8140;BME280;4111;50.972;7.072;2023-07-30T06:55:30;100702.38;;;18.94;90.63
8140;BME280;4111;50.972;7.072;2023-07-30T06:57:57;100707.19;;;19.16;89.70
8140;BME280;4111;50.972;7.072;2023-07-30T07:00:23;100716.66;;;18.96;87.46
8140;BME280;4111;50.972;7.072;2023-07-30T07:02:50;100712.19;;;18.67;86.14
8140;BME280;4111;50.972;7.072;2023-07-30T07:05:16;100713.75;;;18.40;85.59
8140;BME280;4111;50.972;7.072;2023-07-30T07:07:43;100713.47;;;18.23;86.60
8140;BME280;4111;50.972;7.072;2023-07-30T07:10:09;100716.38;;;18.13;85.52
8140;BME280;4111;50.972;7.072;2023-07-30T07:12:39;100713.69;;;18.08;86.22
8140;BME280;4111;50.972;7.072;2023-07-30T07:15:06;100713.06;;;18.11;86.92
8140;BME280;4111;50.972;7.072;2023-07-30T07:17:33;100716.50;;;18.02;88.80
8140;BME280;4111;50.972;7.072;2023-07-30T07:19:59;100716.59;;;17.97;87.18
8140;BME280;4111;50.972;7.072;2023-07-30T07:22:25;100713.47;;;18.04;87.14
8140;BME280;4111;50.972;7.072;2023-07-30T07:24:52;100709.63;;;18.05;87.31
8140;BME280;4111;50.972;7.072;2023-07-30T07:27:19;100714.88;;;18.01;87.50
8140;BME280;4111;50.972;7.072;2023-07-30T07:29:45;100706.03;;;18.04;86.83
8140;BME280;4111;50.972;7.072;2023-07-30T07:32:11;100711.69;;;18.13;86.41
8140;BME280;4111;50.972;7.072;2023-07-30T07:34:38;100710.09;;;18.26;87.28
8140;BME280;4111;50.972;7.072;2023-07-30T07:37:04;100715.59;;;18.26;86.23
8140;BME280;4111;50.972;7.072;2023-07-30T07:39:32;100710.31;;;18.30;85.31
8140;BME280;4111;50.972;7.072;2023-07-30T07:41:59;100721.03;;;18.31;86.54
8140;BME280;4111;50.972;7.072;2023-07-30T07:44:26;100720.41;;;18.34;86.10
8140;BME280;4111;50.972;7.072;2023-07-30T07:46:52;100720.34;;;18.39;85.31
8140;BME280;4111;50.972;7.072;2023-07-30T07:49:19;100724.22;;;18.38;85.05
8140;BME280;4111;50.972;7.072;2023-07-30T07:51:45;100725.03;;;18.39;84.73
8140;BME280;4111;50.972;7.072;2023-07-30T07:54:11;100729.63;;;18.43;85.10
8140;BME280;4111;50.972;7.072;2023-07-30T07:56:38;100724.63;;;18.46;85.14
8140;BME280;4111;50.972;7.072;2023-07-30T07:59:04;100727.69;;;18.44;84.18
8140;BME280;4111;50.972;7.072;2023-07-30T08:01:31;100726.41;;;18.36;84.04
8140;BME280;4111;50.972;7.072;2023-07-30T08:03:57;100722.34;;;18.34;83.79
8140;BME280;4111;50.972;7.072;2023-07-30T08:06:24;100715.88;;;18.43;84.49
8140;BME280;4111;50.972;7.072;2023-07-30T08:08:51;100714.06;;;18.53;84.63
8140;BME280;4111;50.972;7.072;2023-07-30T08:11:17;100716.31;;;18.51;84.20
8140;BME280;4111;50.972;7.072;2023-07-30T08:13:43;100722.34;;;18.53;84.53
8140;BME280;4111;50.972;7.072;2023-07-30T08:16:10;100724.78;;;18.54;84.42
8140;BME280;4111;50.972;7.072;2023-07-30T08:18:36;100726.91;;;18.57;84.12
8140;BME280;4111;50.972;7.072;2023-07-30T08:21:03;100719.81;;;18.56;83.36
8140;BME280;4111;50.972;7.072;2023-07-30T08:23:29;100721.00;;;18.64;83.76
8140;BME280;4111;50.972;7.072;2023-07-30T08:25:56;100722.47;;;18.75;83.99
8140;BME280;4111;50.972;7.072;2023-07-30T08:28:22;100717.78;;;18.76;83.38
8140;BME280;4111;50.972;7.072;2023-07-30T08:30:49;100729.06;;;18.93;83.66
8140;BME280;4111;50.972;7.072;2023-07-30T08:33:15;100730.31;;;19.01;83.41
8140;BME280;4111;50.972;7.072;2023-07-30T08:35:41;100729.91;;;18.94;82.24
8140;BME280;4111;50.972;7.072;2023-07-30T08:38:08;100718.78;;;18.99;83.64
8140;BME280;4111;50.972;7.072;2023-07-30T08:40:34;100732.03;;;18.97;83.25
8140;BME280;4111;50.972;7.072;2023-07-30T08:43:02;100722.84;;;18.88;83.16
8140;BME280;4111;50.972;7.072;2023-07-30T08:45:29;100725.19;;;18.80;83.67
8140;BME280;4111;50.972;7.072;2023-07-30T08:47:55;100729.25;;;18.83;84.09
8140;BME280;4111;50.972;7.072;2023-07-30T08:50:22;100725.06;;;18.86;84.50
8140;BME280;4111;50.972;7.072;2023-07-30T08:52:49;100733.44;;;18.80;85.02
8140;BME280;4111;50.972;7.072;2023-07-30T08:55:16;100728.38;;;18.69;83.44
8140;BME280;4111;50.972;7.072;2023-07-30T08:57:44;100737.16;;;18.71;84.05
8140;BME280;4111;50.972;7.072;2023-07-30T09:00:11;100734.84;;;18.78;84.74
8140;BME280;4111;50.972;7.072;2023-07-30T09:02:52;100743.31;;;18.81;84.50
8140;BME280;4111;50.972;7.072;2023-07-30T09:05:20;100748.84;;;18.95;84.29
8140;BME280;4111;50.972;7.072;2023-07-30T09:07:47;100757.81;;;19.01;84.18
8140;BME280;4111;50.972;7.072;2023-07-30T09:10:13;100750.72;;;19.14;83.94
8140;BME280;4111;50.972;7.072;2023-07-30T09:12:55;100741.97;;;19.39;83.10
8140;BME280;4111;50.972;7.072;2023-07-30T09:15:37;100754.38;;;19.37;82.38
8140;BME280;4111;50.972;7.072;2023-07-30T09:18:05;100756.75;;;19.44;82.63
8140;BME280;4111;50.972;7.072;2023-07-30T09:20:39;100756.97;;;19.47;82.81
8140;BME280;4111;50.972;7.072;2023-07-30T09:23:07;100756.97;;;19.61;82.61
8140;BME280;4111;50.972;7.072;2023-07-30T09:25:34;100756.47;;;19.73;82.29
8140;BME280;4111;50.972;7.072;2023-07-30T09:28:01;100761.13;;;19.86;81.52
8140;BME280;4111;50.972;7.072;2023-07-30T09:30:28;100759.28;;;19.95;80.66
8140;BME280;4111;50.972;7.072;2023-07-30T09:32:56;100764.19;;;19.98;80.18
8140;BME280;4111;50.972;7.072;2023-07-30T09:35:24;100760.69;;;20.07;80.31
8140;BME280;4111;50.972;7.072;2023-07-30T09:37:59;100768.63;;;20.08;79.06
8140;BME280;4111;50.972;7.072;2023-07-30T09:40:34;100766.56;;;20.14;78.38
8140;BME280;4111;50.972;7.072;2023-07-30T09:43:02;100775.84;;;20.18;78.36
8140;BME280;4111;50.972;7.072;2023-07-30T09:45:33;100768.81;;;20.12;76.84
8140;BME280;4111;50.972;7.072;2023-07-30T09:48:02;100777.06;;;20.26;77.21
8140;BME280;4111;50.972;7.072;2023-07-30T09:50:29;100770.50;;;20.35;76.47
8140;BME280;4111;50.972;7.072;2023-07-30T09:52:58;100783.47;;;20.35;76.20
8140;BME280;4111;50.972;7.072;2023-07-30T09:55:25;100774.31;;;20.26;75.81
8140;BME280;4111;50.972;7.072;2023-07-30T09:57:51;100770.19;;;20.37;74.77
8140;BME280;4111;50.972;7.072;2023-07-30T10:00:18;100765.97;;;20.39;75.68
8140;BME280;4111;50.972;7.072;2023-07-30T10:02:49;100782.16;;;20.55;76.17
8140;BME280;4111;50.972;7.072;2023-07-30T10:05:18;100776.31;;;20.70;75.07
8140;BME280;4111;50.972;7.072;2023-07-30T10:08:02;100786.66;;;20.65;74.01
8140;BME280;4111;50.972;7.072;2023-07-30T10:10:30;100777.38;;;20.60;73.36
8140;BME280;4111;50.972;7.072;2023-07-30T10:13:00;100779.56;;;20.50;72.44
8140;BME280;4111;50.972;7.072;2023-07-30T10:15:29;100782.41;;;20.45;72.58
8140;BME280;4111;50.972;7.072;2023-07-30T10:17:57;100784.91;;;20.32;73.08
8140;BME280;4111;50.972;7.072;2023-07-30T10:20:27;100783.28;;;20.31;74.28
8140;BME280;4111;50.972;7.072;2023-07-30T10:22:59;100784.91;;;20.32;74.96
8140;BME280;4111;50.972;7.072;2023-07-30T10:25:41;100786.84;;;20.32;73.29
8140;BME280;4111;50.972;7.072;2023-07-30T10:28:26;100790.06;;;20.48;72.53
8140;BME280;4111;50.972;7.072;2023-07-30T10:31:06;100780.28;;;20.41;72.01
8140;BME280;4111;50.972;7.072;2023-07-30T10:33:55;100779.91;;;20.57;71.50
8140;BME280;4111;50.972;7.072;2023-07-30T10:36:41;100786.66;;;20.65;70.61
8140;BME280;4111;50.972;7.072;2023-07-30T10:39:21;100782.31;;;20.95;69.73
8140;BME280;4111;50.972;7.072;2023-07-30T10:41:54;100768.81;;;21.25;69.50
8140;BME280;4111;50.972;7.072;2023-07-30T10:44:34;100779.44;;;21.40;68.19
8140;BME280;4111;50.972;7.072;2023-07-30T10:47:02;100773.13;;;21.39;67.61
8140;BME280;4111;50.972;7.072;2023-07-30T10:49:36;100772.03;;;21.49;67.58
8140;BME280;4111;50.972;7.072;2023-07-30T10:52:02;100773.66;;;21.50;67.70
8140;BME280;4111;50.972;7.072;2023-07-30T10:54:36;100766.34;;;21.46;67.02
8140;BME280;4111;50.972;7.072;2023-07-30T10:57:03;100762.53;;;21.33;65.63
8140;BME280;4111;50.972;7.072;2023-07-30T10:59:34;100766.81;;;21.16;65.92
8140;BME280;4111;50.972;7.072;2023-07-30T11:02:03;100774.41;;;21.02;65.58
8140;BME280;4111;50.972;7.072;2023-07-30T11:04:34;100772.13;;;21.04;65.92
8140;BME280;4111;50.972;7.072;2023-07-30T11:07:01;100772.13;;;21.04;65.31
8140;BME280;4111;50.972;7.072;2023-07-30T11:09:29;100770.03;;;21.01;64.63
8140;BME280;4111;50.972;7.072;2023-07-30T11:11:55;100778.13;;;20.97;64.32
8140;BME280;4111;50.972;7.072;2023-07-30T11:14:23;100765.50;;;21.05;65.34
8140;BME280;4111;50.972;7.072;2023-07-30T11:16:54;100761.28;;;21.08;65.71
8140;BME280;4111;50.972;7.072;2023-07-30T11:19:20;100768.28;;;21.14;66.76
8140;BME280;4111;50.972;7.072;2023-07-30T11:21:52;100764.53;;;21.10;66.14
8140;BME280;4111;50.972;7.072;2023-07-30T11:24:20;100766.72;;;20.99;65.63
8140;BME280;4111;50.972;7.072;2023-07-30T11:26:57;100772.09;;;20.95;65.78
8140;BME280;4111;50.972;7.072;2023-07-30T11:29:27;100773.03;;;20.91;65.89
8140;BME280;4111;50.972;7.072;2023-07-30T11:31:58;100767.16;;;20.84;66.05
8140;BME280;4111;50.972;7.072;2023-07-30T11:34:26;100773.38;;;20.89;66.08
8140;BME280;4111;50.972;7.072;2023-07-30T11:36:54;100779.91;;;21.02;65.79
8140;BME280;4111;50.972;7.072;2023-07-30T11:39:20;100776.75;;;21.17;66.30
8140;BME280;4111;50.972;7.072;2023-07-30T11:41:47;100767.41;;;21.36;67.39
8140;BME280;4111;50.972;7.072;2023-07-30T11:44:36;100765.03;;;21.43;66.03
8140;BME280;4111;50.972;7.072;2023-07-30T11:47:07;100787.25;;;21.38;65.03
8140;BME280;4111;50.972;7.072;2023-07-30T11:49:33;100782.63;;;21.25;63.90
8140;BME280;4111;50.972;7.072;2023-07-30T11:52:07;100794.94;;;21.18;64.22
8140;BME280;4111;50.972;7.072;2023-07-30T11:54:35;100789.25;;;21.15;64.18
8140;BME280;4111;50.972;7.072;2023-07-30T11:57:01;100789.41;;;21.18;64.49
8140;BME280;4111;50.972;7.072;2023-07-30T11:59:28;100786.72;;;21.27;64.07
8140;BME280;4111;50.972;7.072;2023-07-30T12:01:57;100791.59;;;21.30;63.46
8140;BME280;4111;50.972;7.072;2023-07-30T12:04:23;100792.72;;;21.29;63.94
8140;BME280;4111;50.972;7.072;2023-07-30T12:06:53;100794.69;;;21.29;63.40
8140;BME280;4111;50.972;7.072;2023-07-30T12:09:22;100785.13;;;21.35;64.54
8140;BME280;4111;50.972;7.072;2023-07-30T12:11:52;100789.75;;;21.48;64.40
8140;BME280;4111;50.972;7.072;2023-07-30T12:14:22;100796.31;;;21.61;63.97
8140;BME280;4111;50.972;7.072;2023-07-30T12:16:48;100796.13;;;21.57;63.15
8140;BME280;4111;50.972;7.072;2023-07-30T12:19:15;100805.88;;;21.55;63.51
8140;BME280;4111;50.972;7.072;2023-07-30T12:21:41;100802.13;;;21.51;63.17
8140;BME280;4111;50.972;7.072;2023-07-30T12:24:08;100797.47;;;21.37;63.48
8140;BME280;4111;50.972;7.072;2023-07-30T12:26:35;100815.31;;;21.31;63.67
8140;BME280;4111;50.972;7.072;2023-07-30T12:29:02;100812.19;;;21.24;63.77
8140;BME280;4111;50.972;7.072;2023-07-30T12:31:28;100832.31;;;21.25;64.14
8140;BME280;4111;50.972;7.072;2023-07-30T12:33:55;100827.06;;;21.14;64.85
8140;BME280;4111;50.972;7.072;2023-07-30T12:36:21;100835.84;;;21.16;65.75
8140;BME280;4111;50.972;7.072;2023-07-30T12:38:48;100827.38;;;21.13;66.77
8140;BME280;4111;50.972;7.072;2023-07-30T12:41:14;100826.06;;;21.10;66.60
8140;BME280;4111;50.972;7.072;2023-07-30T12:43:41;100838.13;;;21.14;67.69
8140;BME280;4111;50.972;7.072;2023-07-30T12:46:07;100839.75;;;21.15;67.21
8140;BME280;4111;50.972;7.072;2023-07-30T12:48:33;100826.00;;;21.24;67.20
8140;BME280;4111;50.972;7.072;2023-07-30T12:51:00;100833.06;;;21.39;67.93
8140;BME280;4111;50.972;7.072;2023-07-30T12:53:26;100841.22;;;21.44;66.75
8140;BME280;4111;50.972;7.072;2023-07-30T12:55:53;100836.75;;;21.34;66.64
8140;BME280;4111;50.972;7.072;2023-07-30T12:58:19;100833.81;;;21.53;67.38
8140;BME280;4111;50.972;7.072;2023-07-30T13:00:46;100824.13;;;21.65;67.15
8140;BME280;4111;50.972;7.072;2023-07-30T13:03:12;100825.22;;;21.55;66.36
8140;BME280;4111;50.972;7.072;2023-07-30T13:05:39;100834.31;;;21.64;67.44
8140;BME280;4111;50.972;7.072;2023-07-30T13:08:05;100824.44;;;21.72;67.28
8140;BME280;4111;50.972;7.072;2023-07-30T13:10:32;100830.13;;;21.67;66.83
8140;BME280;4111;50.972;7.072;2023-07-30T13:12:58;100823.63;;;21.63;67.35